Aviation Digital Data Service (ADDS)

Output produced by TAFs form (2352 UTC 18 July 2018)
found at http://www.aviationweather.gov/adds/tafs/
 
RJOC 182300Z 15005KT 8000 NSC 28/22 Q1011
TAF RJOC 182306Z 1900/2006 04005KT 9999 FEW035 
     BECMG 1912/1915 17005KT 
     BECMG 2000/2003 04005KT